• location
  • image
mod_vvisit_countermod_vvisit_countermod_vvisit_countermod_vvisit_countermod_vvisit_countermod_vvisit_counter
mod_vvisit_counterToday154
mod_vvisit_counterYesterday706
mod_vvisit_counterThis week1226
mod_vvisit_counterLast week3845
mod_vvisit_counterThis month10168
mod_vvisit_counterLast month17836
mod_vvisit_counterAll days921818

We have: 48 guests online
Your IP: 54.81.158.195
 , 
Today: Jun 19, 2018
Airport / News / April 2014

April 2014

On 7-8 April, 2014 Siauliai International Airport delegates attended the Nordic Air Cargo Symposium in Stockholm, Sweden. Nordic Air Cargo Symposium is the only regional event focusing on the North European air cargo market, bringing together cargo operators, forwarders, integrators, shippers, airlines, airports, investors, entrepreneurs, suppliers and many more. Due to the current uncertainty concerning where the air cargo industry is heading, all focus was on assessing market trends and how to enhance collaboration between shippers’ needs, forwarders and air carriers.

More information on the website:

 

http://www.euroavia.com/nordic/gallery_2014/nordic_gallery_2014.html


APR2014 sw1APR2014 sw2

Today

Tuesday, 19 June 2018

Aviation Weather Forecast

[source: ADDS]
METAR
EYSA 182220Z AUTO 26007KT 9999NDV NSC 15/09 Q1017 =
TAF
TAF EYSA 182002Z 1821/1906 VRB05KT 9000 SCT040 =
SR / SS: 01:48 / 19:10 UTC (EYSA 2018-06-19)

Search

Who's Online

We have 48 guests online

tic logo en